createdAt,value
2022-10-31T00:00:48.613Z,102765.47
2022-10-31T00:03:15.566Z,102760.25
2022-10-31T00:05:49.967Z,102752.56
2022-10-31T00:08:17.761Z,102748.19
2022-10-31T00:10:45.710Z,102747.28
2022-10-31T00:13:13.464Z,102735.91
2022-10-31T00:15:41.203Z,102745.53
2022-10-31T00:18:09.345Z,102754.25
2022-10-31T00:20:35.948Z,102770.16
2022-10-31T00:23:04.185Z,102775.22
2022-10-31T00:25:37.850Z,102779.53
2022-10-31T00:28:05.738Z,102780.22
2022-10-31T00:30:32.581Z,102784.50
2022-10-31T00:32:59.490Z,102779.06
2022-10-31T00:35:26.548Z,102780.81
2022-10-31T00:37:53.689Z,102775.56
2022-10-31T00:40:20.101Z,102775.66
2022-10-31T00:42:46.506Z,102769.50
2022-10-31T00:45:12.992Z,102740.44
2022-10-31T00:47:39.444Z,102744.41
2022-10-31T00:50:07.042Z,102752.00
2022-10-31T00:52:33.738Z,102749.66
2022-10-31T00:55:00.343Z,102759.22
2022-10-31T00:57:26.767Z,102772.44
2022-10-31T00:59:53.186Z,102721.41
2022-10-31T01:02:19.833Z,102700.53
2022-10-31T01:04:46.466Z,102717.44
2022-10-31T01:07:14.877Z,102702.66
2022-10-31T01:09:41.398Z,102707.88
2022-10-31T01:12:08.293Z,102712.19
2022-10-31T01:14:34.732Z,102713.94
2022-10-31T01:17:01.190Z,102719.97
2022-10-31T01:19:27.618Z,102735.59
2022-10-31T01:21:56.127Z,102730.78
2022-10-31T01:24:22.672Z,102730.78
2022-10-31T01:26:49.086Z,102747.13
2022-10-31T01:29:15.530Z,102736.41
2022-10-31T01:31:41.964Z,102712.09
2022-10-31T01:34:13.277Z,102692.03
2022-10-31T01:36:39.684Z,102693.88
2022-10-31T01:39:14.558Z,102691.47
2022-10-31T01:41:44.453Z,102728.13
2022-10-31T01:44:16.991Z,102777.31
2022-10-31T01:46:52.832Z,102811.00
2022-10-31T01:49:43.191Z,102818.50
2022-10-31T01:52:31.531Z,102805.56
2022-10-31T01:55:05.956Z,102792.13
2022-10-31T01:57:34.110Z,102791.38
2022-10-31T02:00:08.798Z,102789.31
2022-10-31T02:02:35.599Z,102796.84
2022-10-31T02:05:08.850Z,102795.59
2022-10-31T02:07:43.087Z,102829.28
2022-10-31T02:10:09.693Z,102833.63
2022-10-31T02:12:37.258Z,102825.16
2022-10-31T02:15:05.463Z,102828.53
2022-10-31T02:17:33.827Z,102819.38
2022-10-31T02:20:20.294Z,102826.16
2022-10-31T02:23:27.013Z,102835.09
2022-10-31T02:26:33.494Z,102814.72
2022-10-31T02:29:38.492Z,102822.94
2022-10-31T02:32:25.894Z,102830.16
2022-10-31T02:35:01.011Z,102822.31
2022-10-31T02:37:39.326Z,102811.66
2022-10-31T02:40:17.393Z,102809.56
2022-10-31T02:42:58.756Z,102807.22
2022-10-31T02:45:36.541Z,102828.19
2022-10-31T02:48:10.659Z,102816.50
2022-10-31T02:50:42.221Z,102822.34
2022-10-31T02:53:09.758Z,102810.72
2022-10-31T02:55:36.275Z,102807.75
2022-10-31T02:58:07.932Z,102810.19
2022-10-31T03:00:41.852Z,102822.41
2022-10-31T03:03:37.424Z,102820.91
2022-10-31T03:06:38.602Z,102808.22
2022-10-31T03:09:17.478Z,102819.38
2022-10-31T03:11:55.354Z,102822.56
2022-10-31T03:14:30.783Z,102815.03
2022-10-31T03:17:02.662Z,102815.81
2022-10-31T03:19:46.642Z,102809.31
2022-10-31T03:22:23.312Z,102805.94
2022-10-31T03:24:51.670Z,102813.66
2022-10-31T03:27:21.695Z,102839.50
2022-10-31T03:29:50.058Z,102836.91
2022-10-31T03:32:18.064Z,102844.34
2022-10-31T03:34:46.723Z,102854.81
2022-10-31T03:37:18.297Z,102862.00
2022-10-31T03:39:47.468Z,102885.94
2022-10-31T03:42:22.401Z,102822.41
2022-10-31T03:45:05.026Z,102863.41
2022-10-31T03:47:31.970Z,102872.63
2022-10-31T03:49:58.758Z,102853.09
2022-10-31T03:53:05.080Z,102869.28
2022-10-31T03:55:43.290Z,102881.69
2022-10-31T03:58:13.142Z,102877.28
2022-10-31T04:00:44.159Z,102895.81
2022-10-31T04:03:30.920Z,102874.09
2022-10-31T04:06:01.429Z,102887.09
2022-10-31T04:08:31.067Z,102915.66
2022-10-31T04:11:00.117Z,102958.03
2022-10-31T04:13:30.393Z,102952.66
2022-10-31T04:15:57.739Z,102971.25
2022-10-31T04:18:25.034Z,102996.06
2022-10-31T04:21:01.342Z,103050.81
2022-10-31T04:23:29.079Z,103070.38
2022-10-31T04:25:55.659Z,103076.78
2022-10-31T04:28:22.124Z,103092.94
2022-10-31T04:30:48.564Z,103130.75
2022-10-31T04:33:15.044Z,103123.78
2022-10-31T04:35:41.453Z,103133.16
2022-10-31T04:38:07.950Z,103204.38
2022-10-31T04:40:34.374Z,103186.66
2022-10-31T04:43:01.012Z,103171.53
2022-10-31T04:45:27.645Z,103165.03
2022-10-31T04:47:54.114Z,103163.88
2022-10-31T04:50:20.513Z,103173.47
2022-10-31T04:52:47.430Z,103178.94
2022-10-31T04:55:14.552Z,103182.03
2022-10-31T04:57:42.759Z,103181.22
2022-10-31T05:00:11.359Z,103180.63
2022-10-31T05:02:52.405Z,103172.06
2022-10-31T05:05:21.131Z,103150.72
2022-10-31T05:07:49.095Z,103156.31
2022-10-31T05:10:19.268Z,103163.50
2022-10-31T05:12:50.971Z,103168.53
2022-10-31T05:15:18.818Z,103162.16
2022-10-31T05:17:45.777Z,103161.34
2022-10-31T05:20:14.010Z,103166.25
2022-10-31T05:22:45.418Z,103162.81
2022-10-31T05:25:12.371Z,103131.47
2022-10-31T05:27:43.829Z,103052.72
2022-10-31T05:30:12.119Z,103096.00
2022-10-31T05:32:39.741Z,103059.50
2022-10-31T05:35:09.170Z,103029.53
2022-10-31T05:37:39.146Z,103001.63
2022-10-31T05:40:08.587Z,103013.38
2022-10-31T05:42:35.554Z,103015.88
2022-10-31T05:45:02.662Z,103007.31
2022-10-31T05:47:29.069Z,103020.19
2022-10-31T05:49:55.531Z,103007.31
2022-10-31T05:52:21.972Z,103014.25
2022-10-31T05:54:48.390Z,102979.97
2022-10-31T05:57:14.832Z,102987.31
2022-10-31T05:59:41.261Z,102976.09
2022-10-31T06:02:07.851Z,102969.25
2022-10-31T06:04:34.370Z,102962.66
2022-10-31T06:07:00.865Z,102985.00
2022-10-31T06:09:27.299Z,102993.19
2022-10-31T06:11:53.852Z,103006.28
2022-10-31T06:14:20.254Z,102997.16
2022-10-31T06:16:46.761Z,103003.94
2022-10-31T06:19:13.154Z,103012.09
2022-10-31T06:21:39.579Z,103032.91
2022-10-31T06:24:06.070Z,103026.53
2022-10-31T06:26:32.479Z,103016.09
2022-10-31T06:29:02.985Z,103017.41
2022-10-31T06:31:30.675Z,103016.31
2022-10-31T06:33:57.509Z,103018.75
2022-10-31T06:36:24.019Z,103016.25
2022-10-31T06:38:50.512Z,103024.88
2022-10-31T06:41:17.354Z,103070.94
2022-10-31T06:43:46.598Z,103097.53
2022-10-31T06:46:13.051Z,103109.25
2022-10-31T06:48:41.718Z,103126.91
2022-10-31T06:51:08.122Z,103128.81
2022-10-31T06:53:34.578Z,103124.28
2022-10-31T06:56:00.989Z,103140.66
2022-10-31T06:58:27.428Z,103113.44
2022-10-31T07:00:53.878Z,103126.69
2022-10-31T07:03:21.226Z,103105.19
2022-10-31T07:05:47.618Z,103074.69
2022-10-31T07:08:15.082Z,103038.78
2022-10-31T07:10:43.207Z,103046.22
2022-10-31T07:13:13.842Z,103068.81
2022-10-31T07:15:41.813Z,103071.50
2022-10-31T07:18:10.146Z,103062.22
2022-10-31T07:20:36.658Z,103068.47
2022-10-31T07:23:03.380Z,103068.72
2022-10-31T07:25:29.995Z,103077.81
2022-10-31T07:27:56.722Z,103042.66
2022-10-31T07:30:23.296Z,103030.78
2022-10-31T07:32:51.529Z,103023.16
2022-10-31T07:35:21.393Z,103000.25
2022-10-31T07:37:48.832Z,102976.22
2022-10-31T07:40:15.817Z,102951.81
2022-10-31T07:42:44.286Z,102931.22
2022-10-31T07:45:14.637Z,102924.69
2022-10-31T07:47:54.389Z,102915.94
2022-10-31T07:50:23.387Z,102908.25
2022-10-31T07:53:01.431Z,102881.78
2022-10-31T07:55:28.825Z,102877.06
2022-10-31T07:58:00.709Z,102858.19
2022-10-31T08:00:28.258Z,102848.09
2022-10-31T08:03:12.530Z,102831.91
2022-10-31T08:05:40.329Z,102816.66
2022-10-31T08:08:06.794Z,102794.91
2022-10-31T08:10:34.542Z,102798.06
2022-10-31T08:13:05.630Z,102801.53
2022-10-31T08:15:32.685Z,102788.78
2022-10-31T08:17:59.541Z,102786.47
2022-10-31T08:20:26.357Z,102772.88
2022-10-31T08:23:03.841Z,102763.53
2022-10-31T08:25:35.439Z,102744.59
2022-10-31T08:28:05.686Z,102735.41
2022-10-31T08:30:35.177Z,102708.34
2022-10-31T08:33:03.147Z,102709.50
2022-10-31T08:35:29.611Z,102706.22
2022-10-31T08:37:57.844Z,102689.00
2022-10-31T08:40:26.113Z,102668.19
2022-10-31T08:43:07.085Z,102667.94
2022-10-31T08:45:35.029Z,102611.94
2022-10-31T08:48:05.328Z,102616.75
2022-10-31T08:50:34.009Z,102610.09
2022-10-31T08:53:06.272Z,102615.78
2022-10-31T08:55:35.423Z,102610.31
2022-10-31T08:58:02.747Z,102519.25
2022-10-31T09:00:29.404Z,102544.41
2022-10-31T09:03:00.853Z,102546.41
2022-10-31T09:05:27.830Z,102521.25
2022-10-31T09:07:59.285Z,102518.41
2022-10-31T09:10:27.412Z,102518.31
2022-10-31T09:12:58.562Z,102545.19
2022-10-31T09:15:26.360Z,102546.25
2022-10-31T09:17:53.080Z,102549.66
2022-10-31T09:20:20.467Z,102535.69
2022-10-31T09:22:47.033Z,102536.13
2022-10-31T09:25:13.594Z,102532.22
2022-10-31T09:27:40.088Z,102541.31
2022-10-31T09:30:07.302Z,102541.13
2022-10-31T09:32:33.719Z,102527.28
2022-10-31T09:35:00.183Z,102546.41
2022-10-31T09:37:26.673Z,102557.59
2022-10-31T09:39:53.106Z,102552.81
2022-10-31T09:42:41.266Z,102550.25
2022-10-31T09:45:40.824Z,102538.34
2022-10-31T09:48:18.366Z,102538.09
2022-10-31T09:51:09.672Z,102529.22
2022-10-31T09:53:42.622Z,102519.84
2022-10-31T09:56:13.835Z,102495.22
2022-10-31T09:58:44.764Z,102469.94
2022-10-31T10:01:26.917Z,102472.53
2022-10-31T10:03:59.554Z,102461.06
2022-10-31T10:06:30.569Z,102414.06
2022-10-31T10:08:57.756Z,102387.50
2022-10-31T10:11:49.412Z,102362.59
2022-10-31T10:14:31.049Z,102344.88
2022-10-31T10:17:19.060Z,102338.00
2022-10-31T10:19:51.463Z,102318.38
2022-10-31T10:22:53.500Z,102282.81
2022-10-31T10:25:25.368Z,102255.50
2022-10-31T10:28:13.017Z,102216.03
2022-10-31T10:30:58.286Z,102099.94
2022-10-31T10:33:39.301Z,102042.09
2022-10-31T10:36:11.442Z,101984.03
2022-10-31T10:39:05.534Z,101949.34
2022-10-31T10:41:34.700Z,101839.16
2022-10-31T10:44:02.164Z,101798.59
2022-10-31T10:46:57.935Z,101761.13
2022-10-31T10:49:44.557Z,101767.91
2022-10-31T10:52:34.976Z,101787.09
2022-10-31T10:55:19.718Z,101789.69
2022-10-31T10:57:58.686Z,101825.22
2022-10-31T11:00:28.657Z,101849.28
2022-10-31T11:02:56.160Z,101861.38
2022-10-31T11:05:29.350Z,101876.94
2022-10-31T11:07:55.790Z,101874.44
2022-10-31T11:10:22.296Z,101881.91
2022-10-31T11:13:03.517Z,101873.44
2022-10-31T11:15:34.614Z,101866.97
2022-10-31T11:18:01.066Z,101846.88
2022-10-31T11:20:35.426Z,101824.94
2022-10-31T11:23:05.006Z,101819.00
2022-10-31T11:25:31.417Z,101837.19
2022-10-31T11:28:10.524Z,101820.94
2022-10-31T11:30:46.133Z,101818.88
2022-10-31T11:33:35.244Z,101813.22
2022-10-31T11:36:05.005Z,101819.25
2022-10-31T11:38:40.273Z,101838.00
2022-10-31T11:41:13.979Z,101847.06
2022-10-31T11:43:47.304Z,101849.72
2022-10-31T11:46:19.618Z,101850.63
2022-10-31T11:48:51.267Z,101838.47
2022-10-31T11:51:27.893Z,101832.72
2022-10-31T11:54:01.777Z,101851.91
2022-10-31T11:56:40.615Z,101937.84
2022-10-31T11:59:18.043Z,101935.00
2022-10-31T12:01:50.384Z,101932.13
2022-10-31T12:04:18.039Z,101957.47
2022-10-31T12:06:49.842Z,101894.03
2022-10-31T12:09:28.004Z,101850.97
2022-10-31T12:12:26.697Z,101824.19
2022-10-31T12:15:26.389Z,101808.75
2022-10-31T12:18:17.960Z,101793.50
2022-10-31T12:21:03.096Z,101781.81
2022-10-31T12:24:04.130Z,101780.03
2022-10-31T12:26:37.966Z,101772.28
2022-10-31T12:29:30.602Z,101761.03
2022-10-31T12:32:02.857Z,101757.00
2022-10-31T12:34:49.232Z,101749.47
2022-10-31T12:37:33.360Z,101765.44
2022-10-31T12:40:24.280Z,101792.81
2022-10-31T12:43:15.326Z,101786.06
2022-10-31T12:45:52.306Z,101780.69
2022-10-31T12:48:36.198Z,101771.69
2022-10-31T12:51:27.813Z,101771.56
2022-10-31T12:54:14.024Z,101766.50
2022-10-31T12:56:48.428Z,101759.50
2022-10-31T12:59:36.364Z,101766.66
2022-10-31T13:02:11.654Z,101765.00
2022-10-31T13:04:58.670Z,101760.81
2022-10-31T13:07:34.147Z,101753.75
2022-10-31T13:10:07.890Z,101747.38
2022-10-31T13:12:37.452Z,101750.94
2022-10-31T13:15:14.991Z,101748.97
2022-10-31T13:17:46.263Z,101738.81
2022-10-31T13:20:26.613Z,101736.72
2022-10-31T13:22:58.009Z,101724.94
2022-10-31T13:25:29.020Z,101715.03
2022-10-31T13:27:59.724Z,101702.56
2022-10-31T13:30:44.730Z,101689.81
2022-10-31T13:33:30.337Z,101658.28
2022-10-31T13:36:11.977Z,101626.31
2022-10-31T13:38:47.611Z,101651.69
2022-10-31T13:41:40.526Z,101671.75
2022-10-31T13:44:16.327Z,101694.50
2022-10-31T13:46:44.226Z,101691.63
2022-10-31T13:49:41.051Z,101666.34
2022-10-31T13:52:10.806Z,101655.19
2022-10-31T13:54:39.749Z,101641.59
2022-10-31T13:57:38.679Z,101636.28
2022-10-31T14:00:20.181Z,101615.00
2022-10-31T14:02:50.293Z,101607.28
2022-10-31T14:05:27.101Z,101608.56
2022-10-31T14:07:55.402Z,101649.50
2022-10-31T14:10:31.776Z,101648.81
2022-10-31T14:13:21.849Z,101648.28
2022-10-31T14:16:01.781Z,101641.50
2022-10-31T14:18:37.712Z,101646.06
2022-10-31T14:21:27.596Z,101645.63
2022-10-31T14:23:55.318Z,101641.81
2022-10-31T14:26:28.064Z,101632.72
2022-10-31T14:28:57.175Z,101632.75
2022-10-31T14:31:44.503Z,101623.44
2022-10-31T14:34:37.789Z,101620.75
2022-10-31T14:37:24.861Z,101612.19
2022-10-31T14:40:24.643Z,101603.84
2022-10-31T14:43:15.884Z,101590.00
2022-10-31T14:45:54.318Z,101571.94
2022-10-31T14:48:39.346Z,101572.09
2022-10-31T14:51:17.097Z,101592.31
2022-10-31T14:53:50.778Z,101596.38
2022-10-31T14:56:38.358Z,101622.75
2022-10-31T14:59:13.524Z,101656.25
2022-10-31T15:01:51.052Z,101630.47
2022-10-31T15:04:27.316Z,101526.09
2022-10-31T15:07:04.497Z,101491.03
2022-10-31T15:09:36.114Z,101512.56
2022-10-31T15:12:29.265Z,101520.50
2022-10-31T15:14:56.955Z,101487.94
2022-10-31T15:17:25.253Z,101455.38
2022-10-31T15:19:52.284Z,101435.41
2022-10-31T15:22:22.745Z,101414.03
2022-10-31T15:24:50.270Z,101398.38
2022-10-31T15:27:18.553Z,101395.34
2022-10-31T15:29:49.831Z,101386.47
2022-10-31T15:32:27.268Z,101408.38
2022-10-31T15:34:55.401Z,101425.81
2022-10-31T15:37:25.745Z,101435.69
2022-10-31T15:39:52.908Z,101456.00
2022-10-31T15:42:33.609Z,101456.53
2022-10-31T15:45:16.244Z,101463.56
2022-10-31T15:48:19.350Z,101482.19
2022-10-31T15:50:51.048Z,101497.94
2022-10-31T15:53:22.306Z,101523.78
2022-10-31T15:56:04.813Z,101535.72
2022-10-31T15:58:33.696Z,101543.06
2022-10-31T16:01:03.139Z,101558.19
2022-10-31T16:03:34.831Z,101580.09
2022-10-31T16:06:05.206Z,101576.91
2022-10-31T16:08:31.567Z,101582.06
2022-10-31T16:11:15.242Z,101591.50
2022-10-31T16:13:53.430Z,101591.13
2022-10-31T16:16:34.532Z,101594.53
2022-10-31T16:19:04.302Z,101610.28
2022-10-31T16:21:40.163Z,101610.63
2022-10-31T16:24:18.933Z,101617.66
2022-10-31T16:26:50.278Z,101623.78
2022-10-31T16:29:27.579Z,101644.13
2022-10-31T16:31:54.265Z,101640.66
2022-10-31T16:34:26.611Z,101649.25
2022-10-31T16:36:53.577Z,101649.25
2022-10-31T16:39:20.390Z,101653.72
2022-10-31T16:41:50.214Z,101650.13
2022-10-31T16:44:20.613Z,101637.81
2022-10-31T16:46:47.109Z,101655.50
2022-10-31T16:49:13.788Z,101654.59
2022-10-31T16:51:40.242Z,101661.88
2022-10-31T16:54:06.725Z,101658.34
2022-10-31T16:56:35.126Z,101651.97
2022-10-31T16:59:03.553Z,101659.03
2022-10-31T17:01:30.815Z,101653.78
2022-10-31T17:03:57.311Z,101664.03
2022-10-31T17:06:23.949Z,101673.66
2022-10-31T17:08:50.387Z,101661.13
2022-10-31T17:11:21.419Z,101658.38
2022-10-31T17:13:47.911Z,101647.19
2022-10-31T17:16:17.698Z,101623.00
2022-10-31T17:18:46.036Z,101635.97
2022-10-31T17:21:16.624Z,101637.00
2022-10-31T17:23:44.837Z,101641.28
2022-10-31T17:26:11.349Z,101626.69
2022-10-31T17:28:37.900Z,101625.38
2022-10-31T17:31:04.404Z,101642.22
2022-10-31T17:33:30.874Z,101662.66
2022-10-31T17:35:57.278Z,101659.63
2022-10-31T17:38:23.876Z,101654.00
2022-10-31T17:40:50.362Z,101655.75
2022-10-31T17:43:16.781Z,101673.66
2022-10-31T17:45:43.188Z,101681.44
2022-10-31T17:48:12.792Z,101688.84
2022-10-31T17:50:39.438Z,101734.13
2022-10-31T17:53:05.906Z,101754.06
2022-10-31T17:55:36.090Z,101767.41
2022-10-31T17:58:04.382Z,101779.53
2022-10-31T18:00:30.823Z,101780.94
2022-10-31T18:02:57.411Z,101790.22
2022-10-31T18:05:23.854Z,101818.03
2022-10-31T18:07:51.311Z,101824.66
2022-10-31T18:10:18.144Z,101826.00
2022-10-31T18:12:44.661Z,101827.78
2022-10-31T18:15:11.721Z,101801.16
2022-10-31T18:17:41.092Z,101822.28
2022-10-31T18:20:09.911Z,101838.06
2022-10-31T18:22:36.341Z,101843.38
2022-10-31T18:25:03.738Z,101855.34
2022-10-31T18:27:30.239Z,101860.53
2022-10-31T18:29:56.674Z,101852.72
2022-10-31T18:32:23.372Z,101846.84
2022-10-31T18:34:50.481Z,101858.09
2022-10-31T18:37:17.045Z,101864.47
2022-10-31T18:39:43.435Z,101863.91
2022-10-31T18:42:10.012Z,101869.31
2022-10-31T18:44:36.697Z,101884.31
2022-10-31T18:47:03.125Z,101891.34
2022-10-31T18:49:32.739Z,101890.19
2022-10-31T18:52:00.070Z,101880.13
2022-10-31T18:54:26.702Z,101865.91
2022-10-31T18:56:53.409Z,101858.38
2022-10-31T18:59:20.230Z,101868.16
2022-10-31T19:01:46.937Z,101859.91
2022-10-31T19:04:13.649Z,101857.34
2022-10-31T19:06:40.108Z,101843.31
2022-10-31T19:09:10.750Z,101849.84
2022-10-31T19:11:38.593Z,101840.00
2022-10-31T19:14:08.072Z,101847.34
2022-10-31T19:16:35.098Z,101850.78
2022-10-31T19:19:01.596Z,101865.91
2022-10-31T19:21:30.343Z,101854.13
2022-10-31T19:23:58.050Z,101845.22
2022-10-31T19:26:25.779Z,101833.47
2022-10-31T19:28:53.130Z,101831.28
2022-10-31T19:31:21.677Z,101809.97
2022-10-31T19:33:48.247Z,101800.66
2022-10-31T19:36:19.628Z,101794.50
2022-10-31T19:38:48.775Z,101781.88
2022-10-31T19:41:21.476Z,101780.19
2022-10-31T19:43:48.493Z,101767.72
2022-10-31T19:46:22.945Z,101749.94
2022-10-31T19:49:03.744Z,101725.88
2022-10-31T19:51:30.275Z,101714.53
2022-10-31T19:53:56.946Z,101715.38
2022-10-31T19:56:24.998Z,101718.19
2022-10-31T19:58:51.764Z,101692.91
2022-10-31T20:01:22.868Z,101687.75
2022-10-31T20:03:50.233Z,101688.44
2022-10-31T20:06:38.309Z,101683.44
2022-10-31T20:09:07.892Z,101685.25
2022-10-31T20:11:37.034Z,101677.28
2022-10-31T20:14:03.881Z,101683.63
2022-10-31T20:16:32.429Z,101672.59
2022-10-31T20:18:59.666Z,101667.75
2022-10-31T20:21:28.830Z,101642.38
2022-10-31T20:24:04.173Z,101638.59
2022-10-31T20:26:31.903Z,101624.28
2022-10-31T20:29:00.010Z,101615.94
2022-10-31T20:31:29.483Z,101612.19
2022-10-31T20:33:56.311Z,101602.22
2022-10-31T20:36:24.042Z,101600.75
2022-10-31T20:38:52.331Z,101588.13
2022-10-31T20:41:19.646Z,101583.31
2022-10-31T20:43:46.885Z,101583.91
2022-10-31T20:46:19.646Z,101568.03
2022-10-31T20:48:46.721Z,101568.88
2022-10-31T20:53:48.954Z,101537.22
2022-10-31T20:56:18.272Z,101516.59
2022-10-31T20:58:45.411Z,101512.13
2022-10-31T21:01:23.148Z,101502.69
2022-10-31T21:03:50.556Z,101500.59
2022-10-31T21:06:18.333Z,101505.13
2022-10-31T21:08:45.692Z,101491.75
2022-10-31T21:11:16.642Z,101487.47
2022-10-31T21:13:44.677Z,101472.81
2022-10-31T21:16:14.479Z,101467.38
2022-10-31T21:18:42.706Z,101461.72
2022-10-31T21:21:11.539Z,101456.78
2022-10-31T21:23:38.377Z,101450.56
2022-10-31T21:26:11.691Z,101447.88
2022-10-31T21:28:39.443Z,101439.53
2022-10-31T21:31:08.736Z,101437.03
2022-10-31T21:33:36.333Z,101441.44
2022-10-31T21:36:03.336Z,101435.13
2022-10-31T21:38:29.983Z,101433.03
2022-10-31T21:41:09.051Z,101431.00
2022-10-31T21:43:37.190Z,101437.06
2022-10-31T21:46:08.784Z,101433.81
2022-10-31T21:48:41.405Z,101430.03
2022-10-31T21:51:10.501Z,101421.41
2022-10-31T21:53:55.543Z,101414.28
2022-10-31T21:56:23.071Z,101418.41
2022-10-31T21:58:49.781Z,101415.56
2022-10-31T22:01:16.521Z,101416.00
2022-10-31T22:03:43.181Z,101400.25
2022-10-31T22:06:11.534Z,101402.53
2022-10-31T22:08:38.137Z,101398.44
2022-10-31T22:11:06.774Z,101392.41
2022-10-31T22:13:34.963Z,101384.34
2022-10-31T22:16:02.905Z,101377.50
2022-10-31T22:18:29.936Z,101368.75
2022-10-31T22:21:11.331Z,101357.06
2022-10-31T22:23:38.128Z,101365.50
2022-10-31T22:26:06.480Z,101358.78
2022-10-31T22:28:33.588Z,101357.56
2022-10-31T22:31:07.586Z,101340.72
2022-10-31T22:33:34.485Z,101328.84
2022-10-31T22:36:05.516Z,101316.31
2022-10-31T22:38:39.963Z,101302.41
2022-10-31T22:41:07.758Z,101301.25
2022-10-31T22:43:34.271Z,101293.28
2022-10-31T22:46:03.598Z,101289.59
2022-10-31T22:48:32.114Z,101288.72
2022-10-31T22:51:13.753Z,101283.78
2022-10-31T22:53:40.505Z,101271.47
2022-10-31T22:56:08.960Z,101266.88
2022-10-31T22:58:36.164Z,101259.38
2022-10-31T23:01:20.418Z,101264.59
2022-10-31T23:03:47.771Z,101266.78
2022-10-31T23:06:22.392Z,101267.28
2022-10-31T23:08:50.108Z,101258.50
2022-10-31T23:11:20.044Z,101259.66
2022-10-31T23:14:07.036Z,101259.72
2022-10-31T23:16:34.005Z,101247.00
2022-10-31T23:19:00.697Z,101243.00
2022-10-31T23:21:46.442Z,101245.66
2022-10-31T23:24:13.138Z,101242.31
2022-10-31T23:26:58.254Z,101240.63
2022-10-31T23:29:24.726Z,101222.53
2022-10-31T23:31:54.375Z,101225.03
2022-10-31T23:34:22.048Z,101219.22
2022-10-31T23:36:49.208Z,101223.69
2022-10-31T23:39:16.505Z,101234.16
2022-10-31T23:41:44.516Z,101214.94
2022-10-31T23:44:10.914Z,101224.00
2022-10-31T23:46:37.352Z,101223.44
2022-10-31T23:49:04.022Z,101222.13
2022-10-31T23:51:30.497Z,101215.75
2022-10-31T23:53:56.963Z,101208.28
2022-10-31T23:56:23.398Z,101209.69
2022-10-31T23:58:49.838Z,101194.66
